createdAt,value
2024-04-30T00:00:22.000Z,49.23
2024-04-30T00:01:22.000Z,49.12
2024-04-30T00:02:25.000Z,49.25
2024-04-30T00:03:23.000Z,49.13
2024-04-30T00:04:22.000Z,49.44
2024-04-30T00:05:25.000Z,49.38
2024-04-30T00:06:22.000Z,49.34
2024-04-30T00:07:22.000Z,49.47
2024-04-30T00:08:22.000Z,49.67
2024-04-30T00:09:22.000Z,49.48
2024-04-30T00:10:22.000Z,49.44
2024-04-30T00:11:25.000Z,49.52
2024-04-30T00:12:22.000Z,49.61
2024-04-30T00:13:22.000Z,49.5
2024-04-30T00:14:22.000Z,49.54
2024-04-30T00:15:22.000Z,49.66
2024-04-30T00:16:22.000Z,49.66
2024-04-30T00:17:22.000Z,49.56
2024-04-30T00:18:23.000Z,49.77
2024-04-30T00:19:22.000Z,49.75
2024-04-30T00:20:22.000Z,49.89
2024-04-30T00:21:22.000Z,49.79
2024-04-30T00:22:22.000Z,50.04
2024-04-30T00:23:22.000Z,49.88
2024-04-30T00:24:22.000Z,50.18
2024-04-30T00:25:22.000Z,49.93
2024-04-30T00:26:26.000Z,50.05
2024-04-30T00:27:22.000Z,50.16
2024-04-30T00:28:24.000Z,50.01
2024-04-30T00:29:22.000Z,49.94
2024-04-30T00:30:22.000Z,50.23
2024-04-30T00:31:22.000Z,50.08
2024-04-30T00:32:22.000Z,49.99
2024-04-30T00:33:22.000Z,49.79
2024-04-30T00:34:22.000Z,49.95
2024-04-30T00:35:23.000Z,50.12
2024-04-30T00:36:23.000Z,49.92
2024-04-30T00:37:22.000Z,49.92
2024-04-30T00:38:22.000Z,50.07
2024-04-30T00:39:22.000Z,50.29
2024-04-30T00:40:25.000Z,50.43
2024-04-30T00:41:22.000Z,50.34
2024-04-30T00:42:22.000Z,50.28
2024-04-30T00:43:22.000Z,50.45
2024-04-30T00:44:22.000Z,50.25
2024-04-30T00:45:22.000Z,50.47
2024-04-30T00:46:23.000Z,50.5
2024-04-30T00:47:25.000Z,50.61
2024-04-30T00:48:24.000Z,50.6
2024-04-30T00:49:24.000Z,50.52
2024-04-30T00:50:23.000Z,50.38
2024-04-30T00:51:22.000Z,50.53
2024-04-30T00:52:24.000Z,50.62
2024-04-30T00:53:23.000Z,50.56
2024-04-30T00:54:25.000Z,50.68
2024-04-30T00:55:22.000Z,50.85
2024-04-30T00:56:24.000Z,50.8
2024-04-30T00:57:23.000Z,50.75
2024-04-30T00:58:22.000Z,50.66
2024-04-30T00:59:24.000Z,50.81
2024-04-30T01:00:25.000Z,50.95
2024-04-30T01:01:22.000Z,51.13
2024-04-30T01:02:23.000Z,51.13
2024-04-30T01:03:22.000Z,51.02
2024-04-30T01:04:22.000Z,51.2
2024-04-30T01:05:22.000Z,51.08
2024-04-30T01:06:22.000Z,51.2
2024-04-30T01:07:22.000Z,51.14
2024-04-30T01:08:22.000Z,51.31
2024-04-30T01:09:25.000Z,51.41
2024-04-30T01:10:22.000Z,51.2
2024-04-30T01:11:22.000Z,51.28
2024-04-30T01:12:22.000Z,51.24
2024-04-30T01:13:28.000Z,51.55
2024-04-30T01:14:22.000Z,51.19
2024-04-30T01:15:22.000Z,51.38
2024-04-30T01:16:22.000Z,51.59
2024-04-30T01:17:22.000Z,51.33
2024-04-30T01:18:22.000Z,51.32
2024-04-30T01:19:22.000Z,51.49
2024-04-30T01:20:22.000Z,51.44
2024-04-30T01:21:22.000Z,51.53
2024-04-30T01:22:23.000Z,51.72
2024-04-30T01:23:22.000Z,51.51
2024-04-30T01:24:22.000Z,51.86
2024-04-30T01:25:22.000Z,51.59
2024-04-30T01:26:22.000Z,51.72
2024-04-30T01:27:23.000Z,51.85
2024-04-30T01:28:25.000Z,51.56
2024-04-30T01:29:22.000Z,51.83
2024-04-30T01:30:22.000Z,51.92
2024-04-30T01:31:22.000Z,51.68
2024-04-30T01:32:22.000Z,51.68
2024-04-30T01:33:22.000Z,51.87
2024-04-30T01:34:25.000Z,51.89
2024-04-30T01:35:22.000Z,51.98
2024-04-30T01:36:22.000Z,51.92
2024-04-30T01:37:22.000Z,51.76
2024-04-30T01:38:22.000Z,51.89
2024-04-30T01:39:22.000Z,51.85
2024-04-30T01:40:22.000Z,52
2024-04-30T01:41:22.000Z,51.98
2024-04-30T01:42:22.000Z,51.97
2024-04-30T01:43:22.000Z,52.17
2024-04-30T01:44:22.000Z,52.11
2024-04-30T01:45:22.000Z,52.27
2024-04-30T01:46:22.000Z,52.27
2024-04-30T01:47:23.000Z,52.34
2024-04-30T01:48:22.000Z,52.31
2024-04-30T01:49:23.000Z,52.26
2024-04-30T01:50:22.000Z,52.3
2024-04-30T01:51:22.000Z,52.37
2024-04-30T01:52:22.000Z,52.37
2024-04-30T01:53:25.000Z,52.35
2024-04-30T01:54:22.000Z,52.64
2024-04-30T01:55:22.000Z,52.53
2024-04-30T01:56:22.000Z,52.47
2024-04-30T01:57:22.000Z,52.72
2024-04-30T01:58:22.000Z,52.78
2024-04-30T01:59:22.000Z,52.73
2024-04-30T02:00:23.000Z,52.76
2024-04-30T02:01:22.000Z,52.79
2024-04-30T02:02:22.000Z,52.68
2024-04-30T02:03:22.000Z,52.96
2024-04-30T02:04:24.000Z,52.78
2024-04-30T02:06:22.000Z,52.89
2024-04-30T02:07:22.000Z,52.86
2024-04-30T02:08:22.000Z,52.97
2024-04-30T02:09:24.000Z,52.99
2024-04-30T02:10:27.000Z,53.09
2024-04-30T02:11:22.000Z,53.13
2024-04-30T02:12:22.000Z,53.12
2024-04-30T02:13:22.000Z,53.17
2024-04-30T02:14:22.000Z,53.06
2024-04-30T02:15:21.000Z,53.14
2024-04-30T02:16:24.000Z,53.23
2024-04-30T02:17:24.000Z,53.31
2024-04-30T02:18:22.000Z,53.05
2024-04-30T02:19:22.000Z,53.25
2024-04-30T02:20:22.000Z,53.1
2024-04-30T02:21:22.000Z,53.32
2024-04-30T02:22:22.000Z,53.24
2024-04-30T02:23:22.000Z,53.31
2024-04-30T02:24:22.000Z,53.31
2024-04-30T02:25:22.000Z,53.09
2024-04-30T02:26:21.000Z,53.31
2024-04-30T02:27:24.000Z,53.41
2024-04-30T02:28:22.000Z,53.29
2024-04-30T02:29:22.000Z,53.28
2024-04-30T02:34:16.000Z,53.32
2024-04-30T02:35:22.000Z,53.35
2024-04-30T02:36:22.000Z,53.48
2024-04-30T02:37:22.000Z,53.32
2024-04-30T02:38:22.000Z,53.42
2024-04-30T02:39:22.000Z,53.21
2024-04-30T02:40:22.000Z,53.05
2024-04-30T02:41:22.000Z,53.31
2024-04-30T02:42:22.000Z,53.3
2024-04-30T02:43:22.000Z,53.25
2024-04-30T02:44:22.000Z,53.43
2024-04-30T02:45:22.000Z,53.31
2024-04-30T02:46:22.000Z,53.34
2024-04-30T02:47:22.000Z,53.39
2024-04-30T02:48:26.000Z,53.29
2024-04-30T02:49:22.000Z,53.26
2024-04-30T02:50:22.000Z,53.47
2024-04-30T02:51:23.000Z,53.36
2024-04-30T02:52:22.000Z,53.48
2024-04-30T02:53:22.000Z,53.64
2024-04-30T02:54:24.000Z,53.51
2024-04-30T02:55:22.000Z,53.67
2024-04-30T02:56:27.000Z,53.76
2024-04-30T02:57:22.000Z,53.68
2024-04-30T02:58:22.000Z,53.34
2024-04-30T02:59:22.000Z,53.42
2024-04-30T03:00:22.000Z,53.5
2024-04-30T03:01:22.000Z,53.57
2024-04-30T03:02:22.000Z,53.45
2024-04-30T03:03:22.000Z,53.29
2024-04-30T03:04:22.000Z,53.39
2024-04-30T03:05:24.000Z,53.46
2024-04-30T03:06:22.000Z,53.43
2024-04-30T03:07:22.000Z,53.56
2024-04-30T03:08:22.000Z,53.62
2024-04-30T03:09:22.000Z,53.31
2024-04-30T03:10:22.000Z,53.4
2024-04-30T03:11:22.000Z,53.39
2024-04-30T03:12:22.000Z,53.63
2024-04-30T03:13:22.000Z,53.44
2024-04-30T03:14:22.000Z,53.58
2024-04-30T03:15:22.000Z,53.6
2024-04-30T03:16:22.000Z,53.55
2024-04-30T03:17:22.000Z,53.7
2024-04-30T03:18:22.000Z,53.86
2024-04-30T03:19:24.000Z,53.56
2024-04-30T03:20:27.000Z,53.67
2024-04-30T03:21:27.000Z,53.53
2024-04-30T03:22:23.000Z,53.74
2024-04-30T03:23:22.000Z,53.53
2024-04-30T03:24:24.000Z,53.53
2024-04-30T03:25:22.000Z,53.77
2024-04-30T03:26:22.000Z,53.59
2024-04-30T03:27:22.000Z,53.76
2024-04-30T03:28:22.000Z,53.86
2024-04-30T03:29:22.000Z,53.96
2024-04-30T03:30:22.000Z,53.84
2024-04-30T03:31:22.000Z,53.94
2024-04-30T03:32:22.000Z,54
2024-04-30T03:33:22.000Z,53.86
2024-04-30T03:34:22.000Z,54.09
2024-04-30T03:35:22.000Z,54.07
2024-04-30T03:36:22.000Z,53.97
2024-04-30T03:37:22.000Z,54.01
2024-04-30T03:38:22.000Z,54.08
2024-04-30T03:39:24.000Z,54.1
2024-04-30T03:40:24.000Z,54.21
2024-04-30T03:41:22.000Z,54.18
2024-04-30T03:42:22.000Z,54.3
2024-04-30T03:43:24.000Z,54.27
2024-04-30T03:44:22.000Z,54.2
2024-04-30T03:45:22.000Z,54.25
2024-04-30T03:46:22.000Z,54.42
2024-04-30T03:47:24.000Z,54.46
2024-04-30T03:48:22.000Z,54.28
2024-04-30T03:49:22.000Z,54.44
2024-04-30T03:50:22.000Z,54.34
2024-04-30T03:51:22.000Z,54.71
2024-04-30T03:52:22.000Z,54.48
2024-04-30T03:53:22.000Z,54.52
2024-04-30T03:54:23.000Z,54.74
2024-04-30T03:55:22.000Z,54.6
2024-04-30T03:56:22.000Z,54.76
2024-04-30T03:57:22.000Z,54.63
2024-04-30T03:58:22.000Z,54.67
2024-04-30T03:59:22.000Z,54.8
2024-04-30T04:00:23.000Z,54.72
2024-04-30T04:01:22.000Z,54.97
2024-04-30T04:02:22.000Z,54.79
2024-04-30T04:03:22.000Z,54.83
2024-04-30T04:04:22.000Z,54.99
2024-04-30T04:05:22.000Z,55.09
2024-04-30T04:06:22.000Z,54.96
2024-04-30T04:07:22.000Z,54.88
2024-04-30T04:08:22.000Z,54.98
2024-04-30T04:09:22.000Z,55.12
2024-04-30T04:10:22.000Z,55.11
2024-04-30T04:14:56.000Z,55.32
2024-04-30T04:15:51.000Z,55.14
2024-04-30T04:16:51.000Z,55.43
2024-04-30T04:17:51.000Z,55.4
2024-04-30T04:18:51.000Z,55.51
2024-04-30T04:19:51.000Z,55.51
2024-04-30T04:20:51.000Z,55.63
2024-04-30T04:21:51.000Z,55.6
2024-04-30T04:22:51.000Z,55.53
2024-04-30T04:23:51.000Z,55.75
2024-04-30T04:24:51.000Z,55.8
2024-04-30T04:25:51.000Z,55.69
2024-04-30T04:26:51.000Z,55.87
2024-04-30T04:27:54.000Z,55.7
2024-04-30T04:28:51.000Z,55.71
2024-04-30T04:29:51.000Z,56
2024-04-30T04:30:51.000Z,55.6
2024-04-30T04:31:51.000Z,55.77
2024-04-30T04:32:51.000Z,55.85
2024-04-30T04:33:51.000Z,55.7
2024-04-30T04:34:51.000Z,55.97
2024-04-30T04:35:51.000Z,56.05
2024-04-30T04:36:51.000Z,55.85
2024-04-30T04:37:51.000Z,56.52
2024-04-30T04:38:51.000Z,56.11
2024-04-30T04:39:51.000Z,56.15
2024-04-30T04:40:51.000Z,56.26
2024-04-30T04:41:51.000Z,56.18
2024-04-30T04:42:51.000Z,56.21
2024-04-30T04:43:51.000Z,56.18
2024-04-30T04:44:51.000Z,56.32
2024-04-30T04:45:51.000Z,56.13
2024-04-30T04:46:51.000Z,56.15
2024-04-30T04:47:51.000Z,56.28
2024-04-30T04:48:54.000Z,56.22
2024-04-30T04:49:51.000Z,56.32
2024-04-30T04:50:51.000Z,56.22
2024-04-30T04:51:51.000Z,56.24
2024-04-30T04:52:51.000Z,56.63
2024-04-30T04:53:52.000Z,56.54
2024-04-30T04:54:51.000Z,56.47
2024-04-30T04:55:51.000Z,56.36
2024-04-30T04:56:54.000Z,56.17
2024-04-30T04:57:51.000Z,56.53
2024-04-30T04:58:51.000Z,56.64
2024-04-30T04:59:51.000Z,56.61
2024-04-30T05:00:51.000Z,56.56
2024-04-30T05:01:51.000Z,56.4
2024-04-30T05:02:51.000Z,56.34
2024-04-30T05:03:52.000Z,56.85
2024-04-30T05:04:52.000Z,56.85
2024-04-30T05:05:51.000Z,56.69
2024-04-30T05:06:54.000Z,56.59
2024-04-30T05:07:51.000Z,56.94
2024-04-30T05:08:51.000Z,56.8
2024-04-30T05:09:54.000Z,57.07
2024-04-30T05:10:51.000Z,57.2
2024-04-30T05:11:54.000Z,57.09
2024-04-30T05:12:51.000Z,57.2
2024-04-30T05:13:51.000Z,57.23
2024-04-30T05:14:51.000Z,57.32
2024-04-30T05:15:51.000Z,57.3
2024-04-30T05:16:51.000Z,57.41
2024-04-30T05:17:51.000Z,57.3
2024-04-30T05:18:51.000Z,57.34
2024-04-30T05:19:51.000Z,57.39
2024-04-30T05:20:54.000Z,57.3
2024-04-30T05:21:51.000Z,57.39
2024-04-30T05:22:51.000Z,57.6
2024-04-30T05:23:51.000Z,57.51
2024-04-30T05:24:51.000Z,57.56
2024-04-30T05:25:51.000Z,57.37
2024-04-30T05:26:51.000Z,57.4
2024-04-30T05:27:51.000Z,57.56
2024-04-30T05:28:54.000Z,57.67
2024-04-30T05:29:51.000Z,57.72
2024-04-30T05:30:54.000Z,57.74
2024-04-30T05:31:51.000Z,57.77
2024-04-30T05:32:51.000Z,57.95
2024-04-30T05:33:54.000Z,57.92
2024-04-30T05:34:51.000Z,58
2024-04-30T05:35:51.000Z,58.04
2024-04-30T05:36:51.000Z,58.3
2024-04-30T05:37:51.000Z,58.32
2024-04-30T05:38:51.000Z,58.24
2024-04-30T05:39:51.000Z,58.32
2024-04-30T05:40:51.000Z,58.08
2024-04-30T05:41:51.000Z,58.19
2024-04-30T05:42:51.000Z,58.33
2024-04-30T05:43:51.000Z,58.09
2024-04-30T05:44:51.000Z,58.34
2024-04-30T05:45:51.000Z,58.41
2024-04-30T05:46:51.000Z,58.24
2024-04-30T05:47:51.000Z,58.61
2024-04-30T05:48:51.000Z,58.29
2024-04-30T05:49:51.000Z,58.33
2024-04-30T05:50:51.000Z,58.64
2024-04-30T05:51:51.000Z,58.81
2024-04-30T05:52:54.000Z,58.74
2024-04-30T05:53:54.000Z,58.88
2024-04-30T05:54:51.000Z,58.9
2024-04-30T05:55:51.000Z,59.18
2024-04-30T05:56:51.000Z,59.11
2024-04-30T05:57:55.000Z,59.53
2024-04-30T05:58:51.000Z,59.39
2024-04-30T05:59:51.000Z,59.54
2024-04-30T06:00:22.000Z,59.53
2024-04-30T06:01:23.000Z,59.4
2024-04-30T06:02:22.000Z,59.67
2024-04-30T06:03:22.000Z,59.47
2024-04-30T06:04:22.000Z,59.45
2024-04-30T06:05:22.000Z,59.84
2024-04-30T06:06:24.000Z,59.7
2024-04-30T06:07:24.000Z,59.69
2024-04-30T06:08:22.000Z,59.86
2024-04-30T06:09:22.000Z,59.91
2024-04-30T06:10:25.000Z,59.78
2024-04-30T06:11:22.000Z,59.96
2024-04-30T06:12:22.000Z,60.22
2024-04-30T06:13:22.000Z,60.38
2024-04-30T06:14:22.000Z,60.3
2024-04-30T06:15:22.000Z,60.27
2024-04-30T06:16:22.000Z,60.35
2024-04-30T06:17:25.000Z,60.39
2024-04-30T06:18:22.000Z,60.43
2024-04-30T06:19:23.000Z,60.59
2024-04-30T06:20:22.000Z,60.48
2024-04-30T06:21:22.000Z,60.37
2024-04-30T06:22:22.000Z,60.53
2024-04-30T06:23:22.000Z,60.79
2024-04-30T06:24:22.000Z,60.7
2024-04-30T06:25:22.000Z,60.36
2024-04-30T06:26:22.000Z,60.37
2024-04-30T06:27:22.000Z,60.39
2024-04-30T06:28:22.000Z,60.37
2024-04-30T06:29:25.000Z,60.32
2024-04-30T06:30:25.000Z,60.57
2024-04-30T06:31:22.000Z,60.35
2024-04-30T06:32:25.000Z,60.33
2024-04-30T06:33:22.000Z,60.11
2024-04-30T06:34:22.000Z,60.1
2024-04-30T06:35:22.000Z,60.22
2024-04-30T06:36:22.000Z,60.19
2024-04-30T06:37:22.000Z,59.97
2024-04-30T06:38:22.000Z,59.94
2024-04-30T06:39:23.000Z,60.24
2024-04-30T06:40:27.000Z,59.9
2024-04-30T06:41:22.000Z,59.98
2024-04-30T06:42:22.000Z,59.99
2024-04-30T06:43:22.000Z,59.88
2024-04-30T06:44:22.000Z,59.87
2024-04-30T06:45:25.000Z,59.93
2024-04-30T06:46:22.000Z,59.6
2024-04-30T06:47:22.000Z,60.18
2024-04-30T06:48:25.000Z,60.09
2024-04-30T06:49:22.000Z,60.15
2024-04-30T06:50:22.000Z,60.22
2024-04-30T06:51:22.000Z,60.04
2024-04-30T06:52:22.000Z,60.26
2024-04-30T06:53:22.000Z,60.07
2024-04-30T06:54:25.000Z,59.94
2024-04-30T06:55:22.000Z,60.5
2024-04-30T06:56:22.000Z,60.44
2024-04-30T06:57:22.000Z,60.18
2024-04-30T06:58:22.000Z,60.38
2024-04-30T06:59:22.000Z,60.54
2024-04-30T07:00:22.000Z,60.71
2024-04-30T07:01:22.000Z,60.8
2024-04-30T07:02:23.000Z,60.81
2024-04-30T07:03:22.000Z,60.83
2024-04-30T07:04:22.000Z,60.75
2024-04-30T07:05:22.000Z,60.76
2024-04-30T07:06:22.000Z,60.6
2024-04-30T07:07:22.000Z,60.52
2024-04-30T07:08:22.000Z,60.76
2024-04-30T07:09:22.000Z,60.89
2024-04-30T07:10:22.000Z,60.72
2024-04-30T07:11:22.000Z,60.94
2024-04-30T07:12:22.000Z,60.78
2024-04-30T07:13:22.000Z,60.92
2024-04-30T07:14:22.000Z,60.89
2024-04-30T07:15:22.000Z,61.44
2024-04-30T07:16:22.000Z,61.27
2024-04-30T07:17:22.000Z,61.36
2024-04-30T07:18:23.000Z,61.7
2024-04-30T07:19:22.000Z,61.72
2024-04-30T07:20:22.000Z,61.8
2024-04-30T07:21:22.000Z,61.75
2024-04-30T07:22:22.000Z,61.73
2024-04-30T07:23:22.000Z,61.77
2024-04-30T07:24:22.000Z,61.55
2024-04-30T07:25:22.000Z,61.57
2024-04-30T07:26:22.000Z,61.59
2024-04-30T07:27:25.000Z,61.65
2024-04-30T07:28:22.000Z,61.87
2024-04-30T07:29:23.000Z,61.78
2024-04-30T07:30:22.000Z,61.62
2024-04-30T07:31:22.000Z,61.49
2024-04-30T07:32:22.000Z,61.46
2024-04-30T07:33:22.000Z,61.94
2024-04-30T07:34:22.000Z,61.81
2024-04-30T07:35:22.000Z,61.78
2024-04-30T07:36:22.000Z,61.62
2024-04-30T07:37:22.000Z,61.59
2024-04-30T07:38:22.000Z,61.5
2024-04-30T07:39:22.000Z,61.9
2024-04-30T07:40:22.000Z,61.79
2024-04-30T07:41:22.000Z,61.49
2024-04-30T07:42:22.000Z,61.46
2024-04-30T07:43:22.000Z,61.82
2024-04-30T07:44:23.000Z,61.47
2024-04-30T07:45:23.000Z,61.03
2024-04-30T07:46:22.000Z,61.06
2024-04-30T07:47:22.000Z,60.96
2024-04-30T07:48:22.000Z,60.85
2024-04-30T07:49:22.000Z,60.78
2024-04-30T07:50:22.000Z,60.61
2024-04-30T07:51:22.000Z,60.33
2024-04-30T07:52:22.000Z,60.5
2024-04-30T07:53:22.000Z,60.14
2024-04-30T07:54:22.000Z,60.02
2024-04-30T07:55:22.000Z,60.07
2024-04-30T07:56:23.000Z,59.85
2024-04-30T07:57:22.000Z,59.98
2024-04-30T07:58:22.000Z,59.8
2024-04-30T07:59:23.000Z,59.51
2024-04-30T08:00:22.000Z,59.83
2024-04-30T08:01:21.000Z,59.36
2024-04-30T08:02:21.000Z,59.25
2024-04-30T08:03:22.000Z,59.29
2024-04-30T08:04:21.000Z,59.15
2024-04-30T08:05:21.000Z,59.19
2024-04-30T08:06:23.000Z,58.88
2024-04-30T08:07:21.000Z,58.73
2024-04-30T08:08:21.000Z,58.87
2024-04-30T08:09:21.000Z,58.76
2024-04-30T08:10:21.000Z,58.63
2024-04-30T08:11:21.000Z,58.55
2024-04-30T08:12:21.000Z,58.44
2024-04-30T08:13:24.000Z,58.2
2024-04-30T08:14:21.000Z,58.18
2024-04-30T08:15:21.000Z,57.81
2024-04-30T08:16:21.000Z,57.92
2024-04-30T08:17:24.000Z,57.9
2024-04-30T08:18:21.000Z,57.29
2024-04-30T08:19:21.000Z,57.32
2024-04-30T08:20:23.000Z,57.19
2024-04-30T08:21:21.000Z,57.05
2024-04-30T08:22:21.000Z,56.8
2024-04-30T08:23:21.000Z,56.24
2024-04-30T08:24:24.000Z,56.11
2024-04-30T08:25:21.000Z,55.82
2024-04-30T08:26:21.000Z,55.42
2024-04-30T08:27:21.000Z,54.73
2024-04-30T08:28:21.000Z,54.43
2024-04-30T08:29:24.000Z,54.33
2024-04-30T08:30:21.000Z,54.35
2024-04-30T08:31:21.000Z,54.13
2024-04-30T08:32:22.000Z,54.05
2024-04-30T08:33:24.000Z,53.88
2024-04-30T08:34:24.000Z,53.57
2024-04-30T08:35:22.000Z,53.48
2024-04-30T08:36:21.000Z,53.44
2024-04-30T08:37:21.000Z,53.08
2024-04-30T08:38:21.000Z,52.99
2024-04-30T08:39:21.000Z,53.03
2024-04-30T08:40:22.000Z,52.83
2024-04-30T08:41:24.000Z,52.67
2024-04-30T08:42:22.000Z,52.25
2024-04-30T08:43:22.000Z,52.13
2024-04-30T08:44:23.000Z,52.18
2024-04-30T08:45:26.000Z,52.04
2024-04-30T08:46:23.000Z,51.49
2024-04-30T08:47:26.000Z,51.44
2024-04-30T08:48:24.000Z,51.19
2024-04-30T08:49:24.000Z,51.22
2024-04-30T08:50:23.000Z,51.19
2024-04-30T08:51:24.000Z,51.09
2024-04-30T08:52:24.000Z,51.16
2024-04-30T08:53:23.000Z,50.65
2024-04-30T08:54:27.000Z,50.73
2024-04-30T08:55:24.000Z,50.27
2024-04-30T08:56:23.000Z,50.38
2024-04-30T08:57:21.000Z,50.17
2024-04-30T08:58:22.000Z,50.16
2024-04-30T08:59:22.000Z,49.94
2024-04-30T09:00:22.000Z,49.77
2024-04-30T09:01:23.000Z,49.72
2024-04-30T09:02:22.000Z,49.7
2024-04-30T09:03:24.000Z,49.4
2024-04-30T09:04:28.000Z,49.45
2024-04-30T09:05:22.000Z,49.52
2024-04-30T09:06:25.000Z,49.42
2024-04-30T09:07:22.000Z,49.16
2024-04-30T09:08:22.000Z,49.4
2024-04-30T09:09:22.000Z,49.23
2024-04-30T09:10:22.000Z,49.39
2024-04-30T09:11:21.000Z,49.17
2024-04-30T09:12:21.000Z,49.44
2024-04-30T09:13:33.000Z,49.22
2024-04-30T09:14:21.000Z,49.27
2024-04-30T09:15:22.000Z,49.25
2024-04-30T09:16:22.000Z,49.16
2024-04-30T09:17:26.000Z,48.93
2024-04-30T09:18:21.000Z,49.06
2024-04-30T09:19:25.000Z,49.12
2024-04-30T09:20:21.000Z,49.08
2024-04-30T09:21:29.000Z,49.12
2024-04-30T09:22:21.000Z,49.19
2024-04-30T09:23:26.000Z,49.07
2024-04-30T09:24:22.000Z,49.2
2024-04-30T09:25:34.000Z,49.24
2024-04-30T09:26:21.000Z,49.17
2024-04-30T09:27:30.000Z,48.86
2024-04-30T09:28:25.000Z,48.79
2024-04-30T09:29:30.000Z,48.36
2024-04-30T09:30:22.000Z,48.34
2024-04-30T09:31:22.000Z,48.42
2024-04-30T09:32:22.000Z,48.6
2024-04-30T09:33:23.000Z,48.65
2024-04-30T09:34:21.000Z,48.56
2024-04-30T09:35:25.000Z,48.39
2024-04-30T09:36:21.000Z,48.56
2024-04-30T09:37:23.000Z,48.56
2024-04-30T09:38:21.000Z,48.65
2024-04-30T09:39:22.000Z,48.53
2024-04-30T09:40:24.000Z,48.51
2024-04-30T09:41:26.000Z,48.37
2024-04-30T09:42:24.000Z,48.5
2024-04-30T09:43:22.000Z,48.31
2024-04-30T09:44:22.000Z,48.09
2024-04-30T09:45:23.000Z,48.56
2024-04-30T09:46:24.000Z,48.33
2024-04-30T09:47:24.000Z,48.67
2024-04-30T09:48:25.000Z,48.54
2024-04-30T09:49:23.000Z,48.57
2024-04-30T09:50:23.000Z,48.81
2024-04-30T09:51:28.000Z,49.11
2024-04-30T09:52:24.000Z,49.18
2024-04-30T09:53:24.000Z,49.18
2024-04-30T09:54:22.000Z,49.2
2024-04-30T09:55:26.000Z,49.39
2024-04-30T09:56:27.000Z,49.16
2024-04-30T09:57:23.000Z,49.24
2024-04-30T09:58:24.000Z,49.46
2024-04-30T09:59:21.000Z,49.34
2024-04-30T10:00:22.000Z,49.42
2024-04-30T10:01:26.000Z,49.25
2024-04-30T10:02:24.000Z,49.31
2024-04-30T10:03:23.000Z,49.69
2024-04-30T10:04:24.000Z,49.73
2024-04-30T10:05:30.000Z,49.86
2024-04-30T10:06:25.000Z,50.05
2024-04-30T10:07:30.000Z,49.76
2024-04-30T10:08:24.000Z,49.62
2024-04-30T10:09:22.000Z,49.43
2024-04-30T10:10:24.000Z,49.33
2024-04-30T10:11:22.000Z,49.22
2024-04-30T10:12:23.000Z,49.25
2024-04-30T10:13:25.000Z,49.04
2024-04-30T10:14:29.000Z,49.01
2024-04-30T10:15:30.000Z,49.2
2024-04-30T10:16:22.000Z,49.2
2024-04-30T10:17:22.000Z,49.08
2024-04-30T10:18:25.000Z,49.09
2024-04-30T10:19:22.000Z,48.67
2024-04-30T10:20:26.000Z,48.44
2024-04-30T10:21:32.000Z,48.44
2024-04-30T10:22:22.000Z,48.42
2024-04-30T10:23:27.000Z,48.59
2024-04-30T10:24:23.000Z,48.47
2024-04-30T10:25:24.000Z,48.56
2024-04-30T10:26:22.000Z,48.61
2024-04-30T10:27:22.000Z,48.51
2024-04-30T10:28:24.000Z,48.33
2024-04-30T10:29:22.000Z,48.41
2024-04-30T10:30:24.000Z,48.5
2024-04-30T10:31:25.000Z,48.18
2024-04-30T10:32:22.000Z,48.14
2024-04-30T10:33:24.000Z,48.29
2024-04-30T10:34:25.000Z,48.23
2024-04-30T10:35:41.000Z,48.08
2024-04-30T10:36:22.000Z,48.14
2024-04-30T10:37:28.000Z,47.96
2024-04-30T10:38:22.000Z,47.85
2024-04-30T10:39:23.000Z,47.85
2024-04-30T10:40:26.000Z,47.69
2024-04-30T10:41:22.000Z,47.46
2024-04-30T10:42:33.000Z,47.35
2024-04-30T10:43:23.000Z,47.29
2024-04-30T10:44:22.000Z,47.1
2024-04-30T10:45:23.000Z,46.97
2024-04-30T10:46:26.000Z,46.9
2024-04-30T10:47:25.000Z,47.15
2024-04-30T10:48:22.000Z,47.06
2024-04-30T10:49:22.000Z,47.1
2024-04-30T10:50:22.000Z,47.04
2024-04-30T10:51:24.000Z,47.34
2024-04-30T10:52:23.000Z,47.03
2024-04-30T10:53:22.000Z,47.29
2024-04-30T10:54:23.000Z,46.98
2024-04-30T10:55:23.000Z,46.58
2024-04-30T10:56:22.000Z,46.71
2024-04-30T10:57:29.000Z,46.64
2024-04-30T10:58:22.000Z,46.32
2024-04-30T10:59:26.000Z,46.29
2024-04-30T11:00:22.000Z,45.99
2024-04-30T11:01:24.000Z,45.95
2024-04-30T11:02:25.000Z,45.93
2024-04-30T11:03:25.000Z,45.67
2024-04-30T11:04:28.000Z,45.45
2024-04-30T11:05:27.000Z,45.17
2024-04-30T11:06:22.000Z,45.29
2024-04-30T11:07:23.000Z,45.11
2024-04-30T11:08:23.000Z,45.32
2024-04-30T11:09:22.000Z,45.3
2024-04-30T11:10:26.000Z,45.33
2024-04-30T11:11:45.000Z,45.15
2024-04-30T11:12:22.000Z,45.06
2024-04-30T11:13:25.000Z,45.15
2024-04-30T11:14:23.000Z,44.89
2024-04-30T11:15:22.000Z,45.08
2024-04-30T11:16:22.000Z,44.85
2024-04-30T11:17:27.000Z,44.96
2024-04-30T11:18:24.000Z,45.12
2024-04-30T11:19:22.000Z,45.17
2024-04-30T11:20:22.000Z,44.85
2024-04-30T11:21:22.000Z,44.67
2024-04-30T11:22:25.000Z,44.81
2024-04-30T11:23:23.000Z,44.93
2024-04-30T11:24:25.000Z,44.79
2024-04-30T11:25:22.000Z,44.67
2024-04-30T11:26:22.000Z,44.39
2024-04-30T11:27:25.000Z,44.42
2024-04-30T11:28:22.000Z,44.45
2024-04-30T11:29:22.000Z,44.64
2024-04-30T11:30:22.000Z,44.23
2024-04-30T11:31:22.000Z,43.92
2024-04-30T11:32:22.000Z,43.68
2024-04-30T11:33:22.000Z,43.47
2024-04-30T11:34:23.000Z,43.17
2024-04-30T11:35:22.000Z,43.08
2024-04-30T11:36:22.000Z,42.7
2024-04-30T11:37:23.000Z,42.81
2024-04-30T11:38:24.000Z,42.55
2024-04-30T11:39:22.000Z,42.5
2024-04-30T11:40:22.000Z,42.51
2024-04-30T11:41:25.000Z,42.65
2024-04-30T11:42:22.000Z,42.28
2024-04-30T11:43:22.000Z,42.25
2024-04-30T11:44:22.000Z,41.77
2024-04-30T11:45:26.000Z,41.68
2024-04-30T11:46:22.000Z,41.57
2024-04-30T11:47:22.000Z,41.45
2024-04-30T11:48:22.000Z,41.36
2024-04-30T11:49:22.000Z,41.54
2024-04-30T11:50:22.000Z,41.55
2024-04-30T11:51:30.000Z,41.45
2024-04-30T11:52:22.000Z,41.49
2024-04-30T11:53:27.000Z,41.34
2024-04-30T11:54:22.000Z,40.98
2024-04-30T11:55:23.000Z,40.79
2024-04-30T11:56:26.000Z,40.86
2024-04-30T11:57:22.000Z,40.69
2024-04-30T11:58:22.000Z,40.76
2024-04-30T11:59:23.000Z,40.73
2024-04-30T12:00:22.000Z,40.3
2024-04-30T12:01:23.000Z,40.42
2024-04-30T12:02:22.000Z,40.49
2024-04-30T12:03:22.000Z,40.31
2024-04-30T12:04:27.000Z,40.36
2024-04-30T12:05:23.000Z,40.43
2024-04-30T12:06:22.000Z,40.47
2024-04-30T12:07:22.000Z,40.22
2024-04-30T12:08:23.000Z,40.38
2024-04-30T12:09:35.000Z,40.43
2024-04-30T12:10:22.000Z,40.26
2024-04-30T12:11:22.000Z,40.14
2024-04-30T12:12:22.000Z,39.84
2024-04-30T12:13:23.000Z,39.84
2024-04-30T12:14:23.000Z,39.72
2024-04-30T12:15:23.000Z,39.82
2024-04-30T12:16:24.000Z,40.25
2024-04-30T12:17:24.000Z,39.88
2024-04-30T12:18:23.000Z,39.93
2024-04-30T12:19:23.000Z,39.91
2024-04-30T12:20:23.000Z,39.81
2024-04-30T12:21:23.000Z,39.74
2024-04-30T12:22:25.000Z,39.61
2024-04-30T12:23:24.000Z,39.63
2024-04-30T12:24:22.000Z,39.41
2024-04-30T12:25:22.000Z,39.62
2024-04-30T12:26:22.000Z,39.54
2024-04-30T12:27:22.000Z,39.51
2024-04-30T12:28:22.000Z,39.55
2024-04-30T12:29:22.000Z,39.44
2024-04-30T12:30:26.000Z,39.32
2024-04-30T12:31:25.000Z,39.32
2024-04-30T12:32:22.000Z,39.22
2024-04-30T12:33:22.000Z,39.33
2024-04-30T12:45:21.000Z,39.32
2024-04-30T12:46:21.000Z,39.13
2024-04-30T12:47:22.000Z,38.87
2024-04-30T12:48:21.000Z,38.99
2024-04-30T12:49:23.000Z,38.77
2024-04-30T12:50:21.000Z,38.86
2024-04-30T12:51:21.000Z,38.83
2024-04-30T12:52:21.000Z,38.64
2024-04-30T12:53:21.000Z,38.77
2024-04-30T12:54:21.000Z,38.71
2024-04-30T12:55:21.000Z,38.74
2024-04-30T12:56:21.000Z,38.67
2024-04-30T12:57:21.000Z,38.76
2024-04-30T12:58:22.000Z,38.83
2024-04-30T12:59:21.000Z,38.73
2024-04-30T13:00:21.000Z,38.73
2024-04-30T13:01:21.000Z,38.65
2024-04-30T13:02:21.000Z,38.65
2024-04-30T13:03:21.000Z,38.65
2024-04-30T13:04:23.000Z,38.3
2024-04-30T13:05:21.000Z,38.44
2024-04-30T13:06:21.000Z,38.61
2024-04-30T13:07:21.000Z,38.4
2024-04-30T13:08:22.000Z,38.32
2024-04-30T13:09:21.000Z,38.22
2024-04-30T13:10:22.000Z,38.13
2024-04-30T13:11:21.000Z,37.98
2024-04-30T13:12:21.000Z,37.88
2024-04-30T13:13:21.000Z,37.88
2024-04-30T13:14:26.000Z,37.6